sensor_id;sensor_type;location;lat;lon;timestamp;temperature;humidity
5834;DHT22;2943;48.012;10.968;2023-02-02T00:00:51;2.70;99.90
5834;DHT22;2943;48.012;10.968;2023-02-02T00:03:18;2.70;99.90
5834;DHT22;2943;48.012;10.968;2023-02-02T00:05:45;2.70;99.90
5834;DHT22;2943;48.012;10.968;2023-02-02T00:08:12;2.70;99.90
5834;DHT22;2943;48.012;10.968;2023-02-02T00:10:39;2.70;99.90
5834;DHT22;2943;48.012;10.968;2023-02-02T00:13:06;2.70;99.90
5834;DHT22;2943;48.012;10.968;2023-02-02T00:15:34;2.70;99.90
5834;DHT22;2943;48.012;10.968;2023-02-02T00:18:01;2.70;99.90
5834;DHT22;2943;48.012;10.968;2023-02-02T00:20:28;2.70;99.90
5834;DHT22;2943;48.012;10.968;2023-02-02T00:22:55;2.70;99.90
5834;DHT22;2943;48.012;10.968;2023-02-02T00:25:21;2.60;99.90
5834;DHT22;2943;48.012;10.968;2023-02-02T00:27:48;2.60;99.90
5834;DHT22;2943;48.012;10.968;2023-02-02T00:30:15;2.70;99.90
5834;DHT22;2943;48.012;10.968;2023-02-02T00:32:43;2.60;99.90
5834;DHT22;2943;48.012;10.968;2023-02-02T00:35:13;2.60;99.90
5834;DHT22;2943;48.012;10.968;2023-02-02T00:37:40;2.60;99.90
5834;DHT22;2943;48.012;10.968;2023-02-02T00:40:09;2.60;99.90
5834;DHT22;2943;48.012;10.968;2023-02-02T00:42:36;2.60;99.90
5834;DHT22;2943;48.012;10.968;2023-02-02T00:45:03;2.60;99.90
5834;DHT22;2943;48.012;10.968;2023-02-02T00:47:45;2.60;99.90
5834;DHT22;2943;48.012;10.968;2023-02-02T00:50:15;2.60;99.90
5834;DHT22;2943;48.012;10.968;2023-02-02T00:52:42;2.60;99.90
5834;DHT22;2943;48.012;10.968;2023-02-02T00:55:11;2.60;99.90
5834;DHT22;2943;48.012;10.968;2023-02-02T00:57:38;2.60;99.90
5834;DHT22;2943;48.012;10.968;2023-02-02T01:00:07;2.60;99.90
5834;DHT22;2943;48.012;10.968;2023-02-02T01:02:35;2.60;99.90
5834;DHT22;2943;48.012;10.968;2023-02-02T01:05:03;2.60;99.90
5834;DHT22;2943;48.012;10.968;2023-02-02T01:07:30;2.60;99.90
5834;DHT22;2943;48.012;10.968;2023-02-02T01:09:57;2.60;99.90
5834;DHT22;2943;48.012;10.968;2023-02-02T01:12:24;2.60;99.90
5834;DHT22;2943;48.012;10.968;2023-02-02T01:14:51;2.60;99.90
5834;DHT22;2943;48.012;10.968;2023-02-02T01:17:18;2.60;99.90
5834;DHT22;2943;48.012;10.968;2023-02-02T01:19:45;2.60;99.90
5834;DHT22;2943;48.012;10.968;2023-02-02T01:22:13;2.60;99.90
5834;DHT22;2943;48.012;10.968;2023-02-02T01:24:40;2.50;99.90
5834;DHT22;2943;48.012;10.968;2023-02-02T01:27:07;2.60;99.90
5834;DHT22;2943;48.012;10.968;2023-02-02T01:29:33;2.50;99.90
5834;DHT22;2943;48.012;10.968;2023-02-02T01:32:00;2.50;99.90
5834;DHT22;2943;48.012;10.968;2023-02-02T01:34:27;2.50;99.90
5834;DHT22;2943;48.012;10.968;2023-02-02T01:36:54;2.50;99.90
5834;DHT22;2943;48.012;10.968;2023-02-02T01:39:22;2.50;99.90
5834;DHT22;2943;48.012;10.968;2023-02-02T01:41:49;2.40;99.90
5834;DHT22;2943;48.012;10.968;2023-02-02T01:47:22;2.30;99.90
5834;DHT22;2943;48.012;10.968;2023-02-02T01:49:50;2.30;99.90
5834;DHT22;2943;48.012;10.968;2023-02-02T01:52:18;2.30;99.90
5834;DHT22;2943;48.012;10.968;2023-02-02T01:54:50;2.30;99.90
5834;DHT22;2943;48.012;10.968;2023-02-02T01:57:26;2.30;99.90
5834;DHT22;2943;48.012;10.968;2023-02-02T01:59:54;2.30;99.90
5834;DHT22;2943;48.012;10.968;2023-02-02T02:02:22;2.30;99.90
5834;DHT22;2943;48.012;10.968;2023-02-02T02:04:50;2.30;99.90
5834;DHT22;2943;48.012;10.968;2023-02-02T02:07:17;2.30;99.90
5834;DHT22;2943;48.012;10.968;2023-02-02T02:09:44;2.40;99.90
5834;DHT22;2943;48.012;10.968;2023-02-02T02:12:13;2.30;99.90
5834;DHT22;2943;48.012;10.968;2023-02-02T02:14:41;2.30;99.90
5834;DHT22;2943;48.012;10.968;2023-02-02T02:17:39;2.30;99.90
5834;DHT22;2943;48.012;10.968;2023-02-02T02:20:33;2.30;99.90
5834;DHT22;2943;48.012;10.968;2023-02-02T02:23:55;2.30;99.90
5834;DHT22;2943;48.012;10.968;2023-02-02T02:30:06;2.20;99.90
5834;DHT22;2943;48.012;10.968;2023-02-02T02:32:40;2.20;99.90
5834;DHT22;2943;48.012;10.968;2023-02-02T02:35:22;2.20;99.90
5834;DHT22;2943;48.012;10.968;2023-02-02T02:37:57;2.20;99.90
5834;DHT22;2943;48.012;10.968;2023-02-02T02:40:29;2.20;99.90
5834;DHT22;2943;48.012;10.968;2023-02-02T02:42:59;2.20;99.90
5834;DHT22;2943;48.012;10.968;2023-02-02T02:45:28;2.20;99.90
5834;DHT22;2943;48.012;10.968;2023-02-02T02:47:57;2.20;99.90
5834;DHT22;2943;48.012;10.968;2023-02-02T02:50:24;2.20;99.90
5834;DHT22;2943;48.012;10.968;2023-02-02T02:52:56;2.20;99.90
5834;DHT22;2943;48.012;10.968;2023-02-02T02:55:27;2.20;99.90
5834;DHT22;2943;48.012;10.968;2023-02-02T02:58:03;2.20;99.90
5834;DHT22;2943;48.012;10.968;2023-02-02T03:00:47;2.20;99.90
5834;DHT22;2943;48.012;10.968;2023-02-02T03:03:23;2.20;99.90
5834;DHT22;2943;48.012;10.968;2023-02-02T03:06:00;2.30;99.90
5834;DHT22;2943;48.012;10.968;2023-02-02T03:08:31;2.30;99.90
5834;DHT22;2943;48.012;10.968;2023-02-02T03:11:00;2.30;99.90
5834;DHT22;2943;48.012;10.968;2023-02-02T03:13:30;2.30;99.90
5834;DHT22;2943;48.012;10.968;2023-02-02T03:15:57;2.30;99.90
5834;DHT22;2943;48.012;10.968;2023-02-02T03:18:27;2.30;99.90
5834;DHT22;2943;48.012;10.968;2023-02-02T03:20:54;2.30;99.90
5834;DHT22;2943;48.012;10.968;2023-02-02T03:23:21;2.30;99.90
5834;DHT22;2943;48.012;10.968;2023-02-02T03:25:48;2.30;99.90
5834;DHT22;2943;48.012;10.968;2023-02-02T03:28:16;2.30;99.90
5834;DHT22;2943;48.012;10.968;2023-02-02T03:30:43;2.30;99.90
5834;DHT22;2943;48.012;10.968;2023-02-02T03:33:12;2.40;99.90
5834;DHT22;2943;48.012;10.968;2023-02-02T03:35:41;2.30;99.90
5834;DHT22;2943;48.012;10.968;2023-02-02T03:38:07;2.30;99.90
5834;DHT22;2943;48.012;10.968;2023-02-02T03:40:34;2.30;99.90
5834;DHT22;2943;48.012;10.968;2023-02-02T03:43:01;2.40;99.90
5834;DHT22;2943;48.012;10.968;2023-02-02T03:45:29;2.40;99.90
5834;DHT22;2943;48.012;10.968;2023-02-02T03:47:56;2.40;99.90
5834;DHT22;2943;48.012;10.968;2023-02-02T03:50:23;2.40;99.90
5834;DHT22;2943;48.012;10.968;2023-02-02T03:52:52;2.30;99.90
5834;DHT22;2943;48.012;10.968;2023-02-02T03:55:19;2.40;99.90
5834;DHT22;2943;48.012;10.968;2023-02-02T03:57:46;2.30;99.90
5834;DHT22;2943;48.012;10.968;2023-02-02T04:00:14;2.30;99.90
5834;DHT22;2943;48.012;10.968;2023-02-02T04:02:41;2.30;99.90
5834;DHT22;2943;48.012;10.968;2023-02-02T04:05:07;2.30;99.90
5834;DHT22;2943;48.012;10.968;2023-02-02T04:07:34;2.30;99.90
5834;DHT22;2943;48.012;10.968;2023-02-02T04:10:03;2.30;99.90
5834;DHT22;2943;48.012;10.968;2023-02-02T04:12:30;2.40;99.90
5834;DHT22;2943;48.012;10.968;2023-02-02T04:14:57;2.40;99.90
5834;DHT22;2943;48.012;10.968;2023-02-02T04:17:23;2.40;99.90
5834;DHT22;2943;48.012;10.968;2023-02-02T04:19:50;2.40;99.90
5834;DHT22;2943;48.012;10.968;2023-02-02T04:22:22;2.40;99.90
5834;DHT22;2943;48.012;10.968;2023-02-02T04:24:49;2.40;99.90
5834;DHT22;2943;48.012;10.968;2023-02-02T04:27:17;2.40;99.90
5834;DHT22;2943;48.012;10.968;2023-02-02T04:29:44;2.40;99.90
5834;DHT22;2943;48.012;10.968;2023-02-02T04:32:13;2.40;99.90
5834;DHT22;2943;48.012;10.968;2023-02-02T04:34:40;2.40;99.90
5834;DHT22;2943;48.012;10.968;2023-02-02T04:37:07;2.40;99.90
5834;DHT22;2943;48.012;10.968;2023-02-02T04:39:34;2.50;99.90
5834;DHT22;2943;48.012;10.968;2023-02-02T04:42:01;2.50;99.90
5834;DHT22;2943;48.012;10.968;2023-02-02T04:44:30;2.50;99.90
5834;DHT22;2943;48.012;10.968;2023-02-02T04:46:56;2.50;99.90
5834;DHT22;2943;48.012;10.968;2023-02-02T04:49:23;2.50;99.90
5834;DHT22;2943;48.012;10.968;2023-02-02T04:51:50;2.50;99.90
5834;DHT22;2943;48.012;10.968;2023-02-02T04:54:17;2.60;99.90
5834;DHT22;2943;48.012;10.968;2023-02-02T04:56:44;2.60;99.90
5834;DHT22;2943;48.012;10.968;2023-02-02T04:59:11;2.60;99.90
5834;DHT22;2943;48.012;10.968;2023-02-02T05:01:40;2.60;99.90
5834;DHT22;2943;48.012;10.968;2023-02-02T05:04:07;2.60;99.90
5834;DHT22;2943;48.012;10.968;2023-02-02T05:06:33;2.60;99.90
5834;DHT22;2943;48.012;10.968;2023-02-02T05:09:02;2.60;99.90
5834;DHT22;2943;48.012;10.968;2023-02-02T05:11:29;2.60;99.90
5834;DHT22;2943;48.012;10.968;2023-02-02T05:13:56;2.60;99.90
5834;DHT22;2943;48.012;10.968;2023-02-02T05:16:23;2.70;99.90
5834;DHT22;2943;48.012;10.968;2023-02-02T05:18:53;2.70;99.90
5834;DHT22;2943;48.012;10.968;2023-02-02T05:21:21;2.70;99.90
5834;DHT22;2943;48.012;10.968;2023-02-02T05:23:48;2.70;99.90
5834;DHT22;2943;48.012;10.968;2023-02-02T05:26:17;2.70;99.90
5834;DHT22;2943;48.012;10.968;2023-02-02T05:28:45;2.70;99.90
5834;DHT22;2943;48.012;10.968;2023-02-02T05:31:13;2.70;99.90
5834;DHT22;2943;48.012;10.968;2023-02-02T05:33:39;2.70;99.90
5834;DHT22;2943;48.012;10.968;2023-02-02T05:36:08;2.70;99.90
5834;DHT22;2943;48.012;10.968;2023-02-02T05:38:35;2.70;99.90
5834;DHT22;2943;48.012;10.968;2023-02-02T05:41:02;2.70;99.90
5834;DHT22;2943;48.012;10.968;2023-02-02T05:43:30;2.70;99.90
5834;DHT22;2943;48.012;10.968;2023-02-02T05:45:58;2.60;99.90
5834;DHT22;2943;48.012;10.968;2023-02-02T05:48:25;2.60;99.90
5834;DHT22;2943;48.012;10.968;2023-02-02T05:50:57;2.60;99.90
5834;DHT22;2943;48.012;10.968;2023-02-02T05:53:29;2.60;99.90
5834;DHT22;2943;48.012;10.968;2023-02-02T05:55:56;2.60;99.90
5834;DHT22;2943;48.012;10.968;2023-02-02T05:58:23;2.60;99.90
5834;DHT22;2943;48.012;10.968;2023-02-02T06:00:50;2.60;99.90
5834;DHT22;2943;48.012;10.968;2023-02-02T06:03:17;2.60;99.90
5834;DHT22;2943;48.012;10.968;2023-02-02T06:05:44;2.60;99.90
5834;DHT22;2943;48.012;10.968;2023-02-02T06:08:14;2.60;99.90
5834;DHT22;2943;48.012;10.968;2023-02-02T06:10:42;2.60;99.90
5834;DHT22;2943;48.012;10.968;2023-02-02T06:13:09;2.60;99.90
5834;DHT22;2943;48.012;10.968;2023-02-02T06:15:36;2.60;99.90
5834;DHT22;2943;48.012;10.968;2023-02-02T06:18:03;2.60;99.90
5834;DHT22;2943;48.012;10.968;2023-02-02T06:20:33;2.60;99.90
5834;DHT22;2943;48.012;10.968;2023-02-02T06:23:00;2.70;99.90
5834;DHT22;2943;48.012;10.968;2023-02-02T06:25:26;2.80;99.90
5834;DHT22;2943;48.012;10.968;2023-02-02T06:27:56;2.80;99.90
5834;DHT22;2943;48.012;10.968;2023-02-02T06:30:22;2.70;99.90
5834;DHT22;2943;48.012;10.968;2023-02-02T06:32:49;2.70;99.90
5834;DHT22;2943;48.012;10.968;2023-02-02T06:35:16;2.70;99.90
5834;DHT22;2943;48.012;10.968;2023-02-02T06:37:43;2.70;99.90
5834;DHT22;2943;48.012;10.968;2023-02-02T06:40:11;2.70;99.90
5834;DHT22;2943;48.012;10.968;2023-02-02T06:42:38;2.70;99.90
5834;DHT22;2943;48.012;10.968;2023-02-02T06:45:08;2.70;99.90
5834;DHT22;2943;48.012;10.968;2023-02-02T06:47:35;2.60;99.90
5834;DHT22;2943;48.012;10.968;2023-02-02T06:50:02;2.60;99.90
5834;DHT22;2943;48.012;10.968;2023-02-02T06:52:29;2.60;99.90
5834;DHT22;2943;48.012;10.968;2023-02-02T06:54:57;2.70;99.90
5834;DHT22;2943;48.012;10.968;2023-02-02T06:57:23;2.60;99.90
5834;DHT22;2943;48.012;10.968;2023-02-02T06:59:50;2.60;99.90
5834;DHT22;2943;48.012;10.968;2023-02-02T07:02:18;2.70;99.90
5834;DHT22;2943;48.012;10.968;2023-02-02T07:04:47;2.60;99.90
5834;DHT22;2943;48.012;10.968;2023-02-02T07:07:14;2.60;99.90
5834;DHT22;2943;48.012;10.968;2023-02-02T07:09:41;2.60;99.90
5834;DHT22;2943;48.012;10.968;2023-02-02T07:12:08;2.70;99.90
5834;DHT22;2943;48.012;10.968;2023-02-02T07:14:35;2.70;99.90
5834;DHT22;2943;48.012;10.968;2023-02-02T07:17:02;2.60;99.90
5834;DHT22;2943;48.012;10.968;2023-02-02T07:19:30;2.60;99.90
5834;DHT22;2943;48.012;10.968;2023-02-02T07:21:58;2.60;99.90
5834;DHT22;2943;48.012;10.968;2023-02-02T07:24:24;2.60;99.90
5834;DHT22;2943;48.012;10.968;2023-02-02T07:26:53;2.60;99.90
5834;DHT22;2943;48.012;10.968;2023-02-02T07:29:20;2.60;99.90
5834;DHT22;2943;48.012;10.968;2023-02-02T07:31:47;2.70;99.90
5834;DHT22;2943;48.012;10.968;2023-02-02T07:34:13;2.70;99.90
5834;DHT22;2943;48.012;10.968;2023-02-02T07:36:42;2.70;99.90
5834;DHT22;2943;48.012;10.968;2023-02-02T07:39:10;2.70;99.90
5834;DHT22;2943;48.012;10.968;2023-02-02T07:41:37;2.70;99.90
5834;DHT22;2943;48.012;10.968;2023-02-02T07:44:04;2.70;99.90
5834;DHT22;2943;48.012;10.968;2023-02-02T07:46:31;2.70;99.90
5834;DHT22;2943;48.012;10.968;2023-02-02T07:48:58;2.70;99.90
5834;DHT22;2943;48.012;10.968;2023-02-02T07:51:25;2.70;99.90
5834;DHT22;2943;48.012;10.968;2023-02-02T07:53:54;2.70;99.90
5834;DHT22;2943;48.012;10.968;2023-02-02T07:56:24;2.70;99.90
5834;DHT22;2943;48.012;10.968;2023-02-02T07:58:53;2.70;99.90
5834;DHT22;2943;48.012;10.968;2023-02-02T08:01:25;2.70;99.90
5834;DHT22;2943;48.012;10.968;2023-02-02T08:03:54;2.70;99.90
5834;DHT22;2943;48.012;10.968;2023-02-02T08:06:23;2.70;99.90
5834;DHT22;2943;48.012;10.968;2023-02-02T08:08:50;2.70;99.90
5834;DHT22;2943;48.012;10.968;2023-02-02T08:11:20;2.60;99.90
5834;DHT22;2943;48.012;10.968;2023-02-02T08:13:48;2.60;99.90
5834;DHT22;2943;48.012;10.968;2023-02-02T08:16:15;2.60;99.90
5834;DHT22;2943;48.012;10.968;2023-02-02T08:18:42;2.60;99.90
5834;DHT22;2943;48.012;10.968;2023-02-02T08:21:10;2.50;99.90
5834;DHT22;2943;48.012;10.968;2023-02-02T08:23:38;2.60;99.90
5834;DHT22;2943;48.012;10.968;2023-02-02T08:26:07;2.50;99.90
5834;DHT22;2943;48.012;10.968;2023-02-02T08:28:36;2.50;99.90
5834;DHT22;2943;48.012;10.968;2023-02-02T08:31:05;2.40;99.90
5834;DHT22;2943;48.012;10.968;2023-02-02T08:33:32;2.40;99.90
5834;DHT22;2943;48.012;10.968;2023-02-02T08:35:58;2.40;99.90
5834;DHT22;2943;48.012;10.968;2023-02-02T08:38:25;2.40;99.90
5834;DHT22;2943;48.012;10.968;2023-02-02T08:40:52;2.40;99.90
5834;DHT22;2943;48.012;10.968;2023-02-02T08:43:19;2.40;99.90
5834;DHT22;2943;48.012;10.968;2023-02-02T08:45:49;2.40;99.90
5834;DHT22;2943;48.012;10.968;2023-02-02T08:48:16;2.40;99.90
5834;DHT22;2943;48.012;10.968;2023-02-02T08:50:51;2.30;99.90
5834;DHT22;2943;48.012;10.968;2023-02-02T08:53:18;2.40;99.90
5834;DHT22;2943;48.012;10.968;2023-02-02T08:55:44;2.30;99.90
5834;DHT22;2943;48.012;10.968;2023-02-02T08:58:11;2.30;99.90
5834;DHT22;2943;48.012;10.968;2023-02-02T09:00:38;2.30;99.90
5834;DHT22;2943;48.012;10.968;2023-02-02T09:03:06;2.30;99.90
5834;DHT22;2943;48.012;10.968;2023-02-02T09:05:34;2.30;99.90
5834;DHT22;2943;48.012;10.968;2023-02-02T09:08:03;2.40;99.90
5834;DHT22;2943;48.012;10.968;2023-02-02T09:10:30;2.40;99.90
5834;DHT22;2943;48.012;10.968;2023-02-02T09:12:57;2.40;99.90
5834;DHT22;2943;48.012;10.968;2023-02-02T09:15:24;2.40;99.90
5834;DHT22;2943;48.012;10.968;2023-02-02T09:17:52;2.40;99.90
5834;DHT22;2943;48.012;10.968;2023-02-02T09:20:20;2.40;99.90
5834;DHT22;2943;48.012;10.968;2023-02-02T09:22:47;2.50;99.90
5834;DHT22;2943;48.012;10.968;2023-02-02T09:25:14;2.50;99.90
5834;DHT22;2943;48.012;10.968;2023-02-02T09:27:41;2.50;99.90
5834;DHT22;2943;48.012;10.968;2023-02-02T09:30:12;2.50;99.90
5834;DHT22;2943;48.012;10.968;2023-02-02T09:32:40;2.50;99.90
5834;DHT22;2943;48.012;10.968;2023-02-02T09:35:07;2.50;99.90
5834;DHT22;2943;48.012;10.968;2023-02-02T09:37:36;2.60;99.90
5834;DHT22;2943;48.012;10.968;2023-02-02T09:40:03;2.60;99.90
5834;DHT22;2943;48.012;10.968;2023-02-02T09:42:42;2.50;99.90
5834;DHT22;2943;48.012;10.968;2023-02-02T09:45:17;2.50;99.90
5834;DHT22;2943;48.012;10.968;2023-02-02T09:47:54;2.50;99.90
5834;DHT22;2943;48.012;10.968;2023-02-02T09:50:44;2.50;99.90
5834;DHT22;2943;48.012;10.968;2023-02-02T09:53:40;2.50;99.90
5834;DHT22;2943;48.012;10.968;2023-02-02T09:56:17;2.50;99.90
5834;DHT22;2943;48.012;10.968;2023-02-02T09:58:48;2.50;99.90
5834;DHT22;2943;48.012;10.968;2023-02-02T10:01:20;2.60;99.90
5834;DHT22;2943;48.012;10.968;2023-02-02T10:03:56;2.60;99.90
5834;DHT22;2943;48.012;10.968;2023-02-02T10:06:29;2.60;99.90
5834;DHT22;2943;48.012;10.968;2023-02-02T10:09:05;2.60;99.90
5834;DHT22;2943;48.012;10.968;2023-02-02T10:11:36;2.60;99.90
5834;DHT22;2943;48.012;10.968;2023-02-02T10:14:12;2.60;99.90
5834;DHT22;2943;48.012;10.968;2023-02-02T10:16:43;2.60;99.90
5834;DHT22;2943;48.012;10.968;2023-02-02T10:19:13;2.60;99.90
5834;DHT22;2943;48.012;10.968;2023-02-02T10:21:45;2.60;99.90
5834;DHT22;2943;48.012;10.968;2023-02-02T10:24:18;2.70;99.90
5834;DHT22;2943;48.012;10.968;2023-02-02T10:26:47;2.70;99.90
5834;DHT22;2943;48.012;10.968;2023-02-02T10:29:17;2.70;99.90
5834;DHT22;2943;48.012;10.968;2023-02-02T10:31:52;2.70;99.90
5834;DHT22;2943;48.012;10.968;2023-02-02T10:34:27;2.70;99.90
5834;DHT22;2943;48.012;10.968;2023-02-02T10:37:14;2.60;99.90
5834;DHT22;2943;48.012;10.968;2023-02-02T10:39:54;2.70;99.90
5834;DHT22;2943;48.012;10.968;2023-02-02T10:42:29;2.70;99.90
5834;DHT22;2943;48.012;10.968;2023-02-02T10:45:01;2.60;99.90
5834;DHT22;2943;48.012;10.968;2023-02-02T10:47:32;2.60;99.90
5834;DHT22;2943;48.012;10.968;2023-02-02T10:50:16;2.60;99.90
5834;DHT22;2943;48.012;10.968;2023-02-02T10:52:46;2.60;99.90
5834;DHT22;2943;48.012;10.968;2023-02-02T10:55:22;2.60;99.90
5834;DHT22;2943;48.012;10.968;2023-02-02T10:57:59;2.60;99.90
5834;DHT22;2943;48.012;10.968;2023-02-02T11:00:33;2.60;99.90
5834;DHT22;2943;48.012;10.968;2023-02-02T11:03:01;2.60;99.90
5834;DHT22;2943;48.012;10.968;2023-02-02T11:05:32;2.60;99.90
5834;DHT22;2943;48.012;10.968;2023-02-02T11:08:19;2.70;99.90
5834;DHT22;2943;48.012;10.968;2023-02-02T11:10:51;2.70;99.90
5834;DHT22;2943;48.012;10.968;2023-02-02T11:13:27;2.70;99.90
5834;DHT22;2943;48.012;10.968;2023-02-02T11:16:25;2.70;99.90
5834;DHT22;2943;48.012;10.968;2023-02-02T11:18:53;2.80;99.90
5834;DHT22;2943;48.012;10.968;2023-02-02T11:21:23;2.80;99.90
5834;DHT22;2943;48.012;10.968;2023-02-02T11:23:58;2.80;99.90
5834;DHT22;2943;48.012;10.968;2023-02-02T11:26:41;2.90;99.90
5834;DHT22;2943;48.012;10.968;2023-02-02T11:29:13;2.90;99.90
5834;DHT22;2943;48.012;10.968;2023-02-02T11:31:41;2.90;99.90
5834;DHT22;2943;48.012;10.968;2023-02-02T11:34:19;3.00;99.90
5834;DHT22;2943;48.012;10.968;2023-02-02T11:37:02;3.10;99.90
5834;DHT22;2943;48.012;10.968;2023-02-02T11:39:29;3.10;99.90
5834;DHT22;2943;48.012;10.968;2023-02-02T11:42:04;3.10;99.90
5834;DHT22;2943;48.012;10.968;2023-02-02T11:44:32;3.20;99.90
5834;DHT22;2943;48.012;10.968;2023-02-02T11:47:02;3.20;99.90
5834;DHT22;2943;48.012;10.968;2023-02-02T11:49:34;3.20;99.90
5834;DHT22;2943;48.012;10.968;2023-02-02T11:52:04;3.20;99.90
5834;DHT22;2943;48.012;10.968;2023-02-02T11:54:33;3.20;99.90
5834;DHT22;2943;48.012;10.968;2023-02-02T11:57:06;3.20;99.90
5834;DHT22;2943;48.012;10.968;2023-02-02T11:59:36;3.20;99.90
5834;DHT22;2943;48.012;10.968;2023-02-02T12:02:26;3.20;99.90
5834;DHT22;2943;48.012;10.968;2023-02-02T12:04:55;3.20;99.90
5834;DHT22;2943;48.012;10.968;2023-02-02T12:07:37;3.20;99.90
5834;DHT22;2943;48.012;10.968;2023-02-02T12:10:18;3.20;99.90
5834;DHT22;2943;48.012;10.968;2023-02-02T12:12:55;3.20;99.90
5834;DHT22;2943;48.012;10.968;2023-02-02T12:15:35;3.10;99.90
5834;DHT22;2943;48.012;10.968;2023-02-02T12:18:17;3.20;99.90
5834;DHT22;2943;48.012;10.968;2023-02-02T12:20:52;3.10;99.90
5834;DHT22;2943;48.012;10.968;2023-02-02T12:23:39;3.10;99.90
5834;DHT22;2943;48.012;10.968;2023-02-02T12:26:17;3.20;99.90
5834;DHT22;2943;48.012;10.968;2023-02-02T12:29:03;3.10;99.90
5834;DHT22;2943;48.012;10.968;2023-02-02T12:31:43;3.20;99.90
5834;DHT22;2943;48.012;10.968;2023-02-02T12:34:18;3.10;99.90
5834;DHT22;2943;48.012;10.968;2023-02-02T12:36:50;3.10;99.90
5834;DHT22;2943;48.012;10.968;2023-02-02T12:39:22;3.10;99.90
5834;DHT22;2943;48.012;10.968;2023-02-02T12:42:13;3.00;99.90
5834;DHT22;2943;48.012;10.968;2023-02-02T12:45:03;3.00;99.90
5834;DHT22;2943;48.012;10.968;2023-02-02T12:47:39;3.00;99.90
5834;DHT22;2943;48.012;10.968;2023-02-02T12:50:24;3.00;99.90
5834;DHT22;2943;48.012;10.968;2023-02-02T12:53:06;3.00;99.90
5834;DHT22;2943;48.012;10.968;2023-02-02T12:55:42;3.00;99.90
5834;DHT22;2943;48.012;10.968;2023-02-02T12:58:17;3.00;99.90
5834;DHT22;2943;48.012;10.968;2023-02-02T13:01:09;3.00;99.90
5834;DHT22;2943;48.012;10.968;2023-02-02T13:04:00;3.00;99.90
5834;DHT22;2943;48.012;10.968;2023-02-02T13:07:03;3.00;99.90
5834;DHT22;2943;48.012;10.968;2023-02-02T13:09:38;3.00;99.90
5834;DHT22;2943;48.012;10.968;2023-02-02T13:12:08;3.00;99.90
5834;DHT22;2943;48.012;10.968;2023-02-02T13:14:39;3.00;99.90
5834;DHT22;2943;48.012;10.968;2023-02-02T13:17:11;2.90;99.90
5834;DHT22;2943;48.012;10.968;2023-02-02T13:19:42;2.90;99.90
5834;DHT22;2943;48.012;10.968;2023-02-02T13:22:14;2.90;99.90
5834;DHT22;2943;48.012;10.968;2023-02-02T13:24:44;2.90;99.90
5834;DHT22;2943;48.012;10.968;2023-02-02T13:27:14;2.90;99.90
5834;DHT22;2943;48.012;10.968;2023-02-02T13:29:46;2.90;99.90
5834;DHT22;2943;48.012;10.968;2023-02-02T13:32:22;2.90;99.90
5834;DHT22;2943;48.012;10.968;2023-02-02T13:34:55;2.90;99.90
5834;DHT22;2943;48.012;10.968;2023-02-02T13:37:27;2.90;99.90
5834;DHT22;2943;48.012;10.968;2023-02-02T13:40:03;2.90;99.90
5834;DHT22;2943;48.012;10.968;2023-02-02T13:42:37;2.90;99.90
5834;DHT22;2943;48.012;10.968;2023-02-02T13:45:20;2.90;99.90
5834;DHT22;2943;48.012;10.968;2023-02-02T13:47:56;2.90;99.90
5834;DHT22;2943;48.012;10.968;2023-02-02T13:50:26;2.90;99.90
5834;DHT22;2943;48.012;10.968;2023-02-02T13:53:27;2.90;99.90
5834;DHT22;2943;48.012;10.968;2023-02-02T13:56:13;2.90;99.90
5834;DHT22;2943;48.012;10.968;2023-02-02T13:59:04;2.90;99.90
5834;DHT22;2943;48.012;10.968;2023-02-02T14:01:50;2.90;99.90
5834;DHT22;2943;48.012;10.968;2023-02-02T14:04:22;2.90;99.90
5834;DHT22;2943;48.012;10.968;2023-02-02T14:06:58;2.90;99.90
5834;DHT22;2943;48.012;10.968;2023-02-02T14:09:27;2.90;99.90
5834;DHT22;2943;48.012;10.968;2023-02-02T14:11:57;2.90;99.90
5834;DHT22;2943;48.012;10.968;2023-02-02T14:14:26;2.90;99.90
5834;DHT22;2943;48.012;10.968;2023-02-02T14:17:01;2.90;99.90
5834;DHT22;2943;48.012;10.968;2023-02-02T14:19:50;2.90;99.90
5834;DHT22;2943;48.012;10.968;2023-02-02T14:22:39;2.90;99.90
5834;DHT22;2943;48.012;10.968;2023-02-02T14:28:37;2.80;99.90
5834;DHT22;2943;48.012;10.968;2023-02-02T14:31:42;2.80;99.90
5834;DHT22;2943;48.012;10.968;2023-02-02T14:34:27;2.80;99.90
5834;DHT22;2943;48.012;10.968;2023-02-02T14:39:57;2.80;99.90
5834;DHT22;2943;48.012;10.968;2023-02-02T14:42:34;2.70;99.90
5834;DHT22;2943;48.012;10.968;2023-02-02T14:45:26;2.80;99.90
5834;DHT22;2943;48.012;10.968;2023-02-02T14:47:54;2.70;99.90
5834;DHT22;2943;48.012;10.968;2023-02-02T14:50:33;2.70;99.90
5834;DHT22;2943;48.012;10.968;2023-02-02T14:53:20;2.70;99.90
5834;DHT22;2943;48.012;10.968;2023-02-02T14:55:55;2.70;99.90
5834;DHT22;2943;48.012;10.968;2023-02-02T14:58:29;2.70;99.90
5834;DHT22;2943;48.012;10.968;2023-02-02T15:01:06;2.70;99.90
5834;DHT22;2943;48.012;10.968;2023-02-02T15:03:45;2.70;99.90
5834;DHT22;2943;48.012;10.968;2023-02-02T15:06:25;2.70;99.90
5834;DHT22;2943;48.012;10.968;2023-02-02T15:15:08;2.70;99.90
5834;DHT22;2943;48.012;10.968;2023-02-02T15:17:57;2.70;99.90
5834;DHT22;2943;48.012;10.968;2023-02-02T15:20:30;2.70;99.90
5834;DHT22;2943;48.012;10.968;2023-02-02T15:23:01;2.70;99.90
5834;DHT22;2943;48.012;10.968;2023-02-02T15:25:32;2.70;99.90
5834;DHT22;2943;48.012;10.968;2023-02-02T15:28:06;2.70;99.90
5834;DHT22;2943;48.012;10.968;2023-02-02T15:30:37;2.70;99.90
5834;DHT22;2943;48.012;10.968;2023-02-02T15:33:17;2.70;99.90
5834;DHT22;2943;48.012;10.968;2023-02-02T15:35:46;2.70;99.90
5834;DHT22;2943;48.012;10.968;2023-02-02T15:38:15;2.70;99.90
5834;DHT22;2943;48.012;10.968;2023-02-02T15:40:44;2.70;99.90
5834;DHT22;2943;48.012;10.968;2023-02-02T15:43:11;2.70;99.90
5834;DHT22;2943;48.012;10.968;2023-02-02T15:45:42;2.70;99.90
5834;DHT22;2943;48.012;10.968;2023-02-02T15:48:19;2.70;99.90
5834;DHT22;2943;48.012;10.968;2023-02-02T15:50:48;2.70;99.90
5834;DHT22;2943;48.012;10.968;2023-02-02T15:53:22;2.70;99.90
5834;DHT22;2943;48.012;10.968;2023-02-02T15:55:50;2.70;99.90
5834;DHT22;2943;48.012;10.968;2023-02-02T15:58:27;2.70;99.90
5834;DHT22;2943;48.012;10.968;2023-02-02T16:00:58;2.70;99.90
5834;DHT22;2943;48.012;10.968;2023-02-02T16:03:30;2.70;99.90
5834;DHT22;2943;48.012;10.968;2023-02-02T16:05:59;2.70;99.90
5834;DHT22;2943;48.012;10.968;2023-02-02T16:08:27;2.70;99.90
5834;DHT22;2943;48.012;10.968;2023-02-02T16:11:04;2.70;99.90
5834;DHT22;2943;48.012;10.968;2023-02-02T16:13:31;2.70;99.90
5834;DHT22;2943;48.012;10.968;2023-02-02T16:16:02;2.70;99.90
5834;DHT22;2943;48.012;10.968;2023-02-02T16:18:31;2.80;99.90
5834;DHT22;2943;48.012;10.968;2023-02-02T16:21:00;2.80;99.90
5834;DHT22;2943;48.012;10.968;2023-02-02T16:23:30;2.80;99.90
5834;DHT22;2943;48.012;10.968;2023-02-02T16:26:01;2.80;99.90
5834;DHT22;2943;48.012;10.968;2023-02-02T16:28:28;2.80;99.90
5834;DHT22;2943;48.012;10.968;2023-02-02T16:30:59;2.80;99.90
5834;DHT22;2943;48.012;10.968;2023-02-02T16:33:37;2.80;99.90
5834;DHT22;2943;48.012;10.968;2023-02-02T16:36:19;2.80;99.90
5834;DHT22;2943;48.012;10.968;2023-02-02T16:38:46;2.90;99.90
5834;DHT22;2943;48.012;10.968;2023-02-02T16:41:25;2.90;99.90
5834;DHT22;2943;48.012;10.968;2023-02-02T16:43:52;2.90;99.90
5834;DHT22;2943;48.012;10.968;2023-02-02T16:46:41;2.90;99.90
5834;DHT22;2943;48.012;10.968;2023-02-02T16:49:15;2.90;99.90